createdAt,value
2023-01-17T09:46:35.015Z,6.90
2023-01-17T09:49:09.267Z,7.30
2023-01-17T09:51:38.578Z,7.30
2023-01-17T09:54:07.344Z,7.20
2023-01-17T09:56:42.586Z,7.50
2023-01-17T09:59:33.192Z,7.80
2023-01-17T10:02:19.229Z,7.90
2023-01-17T10:05:04.346Z,8.10
2023-01-17T10:07:43.535Z,8.20
2023-01-17T10:10:23.134Z,8.40
2023-01-17T10:12:57.734Z,8.20
2023-01-17T10:15:42.772Z,8.40
2023-01-17T10:18:37.209Z,8.40
2023-01-17T10:21:11.930Z,8.30
2023-01-17T10:24:06.687Z,8.40
2023-01-17T10:26:37.586Z,8.60
2023-01-17T10:29:11.954Z,8.90
2023-01-17T10:31:46.769Z,8.90
2023-01-17T10:34:20.929Z,9.00
2023-01-17T10:36:54.293Z,9.60
2023-01-17T10:39:25.095Z,10.10
2023-01-17T10:41:56.608Z,10.50
2023-01-17T10:44:31.850Z,10.50
2023-01-17T10:47:03.373Z,10.10
2023-01-17T10:49:33.497Z,10.30
2023-01-17T10:52:13.701Z,10.60
2023-01-17T10:54:55.053Z,9.80
2023-01-17T10:57:25.255Z,9.80
2023-01-17T10:59:59.287Z,9.60
2023-01-17T11:02:31.477Z,9.50
2023-01-17T11:05:12.543Z,9.70
2023-01-17T11:07:44.279Z,9.60
2023-01-17T11:10:42.806Z,9.20
2023-01-17T11:13:30.425Z,8.70
2023-01-17T11:16:02.322Z,8.20
2023-01-17T11:18:32.748Z,8.40
2023-01-17T11:21:12.322Z,8.50
2023-01-17T11:23:43.451Z,8.60
2023-01-17T11:26:25.613Z,9.00
2023-01-17T11:28:54.624Z,9.60
2023-01-17T11:31:27.955Z,10.20
2023-01-17T11:34:15.993Z,10.50
2023-01-17T11:36:45.047Z,10.50
2023-01-17T11:39:27.729Z,10.10
2023-01-17T11:41:58.020Z,10.20
2023-01-17T11:44:28.652Z,10.50
2023-01-17T11:47:20.171Z,10.00
2023-01-17T11:49:50.648Z,9.60
2023-01-17T11:52:24.586Z,10.10
2023-01-17T11:54:56.304Z,10.70
2023-01-17T11:57:28.823Z,11.10
2023-01-17T12:00:11.792Z,11.30
2023-01-17T12:03:08.024Z,11.30
2023-01-17T12:05:53.765Z,10.30
2023-01-17T12:08:35.014Z,10.20
2023-01-17T12:11:11.905Z,9.50
2023-01-17T12:14:02.422Z,9.10
2023-01-17T12:16:52.484Z,8.60
2023-01-17T12:19:36.745Z,8.20
2023-01-17T12:22:25.574Z,7.90
2023-01-17T12:25:15.073Z,7.70
2023-01-17T12:27:54.291Z,7.60
2023-01-17T12:30:58.503Z,7.30
2023-01-17T12:33:39.109Z,7.10
2023-01-17T12:36:17.746Z,6.90
2023-01-17T12:38:49.230Z,6.80
2023-01-17T12:41:24.426Z,6.70
2023-01-17T12:43:54.209Z,6.70
2023-01-17T12:46:28.453Z,6.40
2023-01-17T12:49:05.377Z,6.40
2023-01-17T12:51:38.530Z,6.40
2023-01-17T12:54:15.092Z,6.40
2023-01-17T12:56:50.174Z,6.30
2023-01-17T12:59:21.210Z,6.40
2023-01-17T13:01:57.878Z,6.20
2023-01-17T13:04:33.401Z,6.10
2023-01-17T13:07:08.014Z,6.10
2023-01-17T13:09:42.633Z,6.10
2023-01-17T13:12:15.317Z,6.00
2023-01-17T13:14:43.854Z,6.00
2023-01-17T13:17:26.074Z,5.90
2023-01-17T13:20:01.124Z,5.90
2023-01-17T13:22:32.006Z,5.90
2023-01-17T13:25:09.451Z,6.00
2023-01-17T13:28:03.070Z,6.00
2023-01-17T13:30:51.739Z,6.10
2023-01-17T13:33:29.928Z,6.10
2023-01-17T13:36:13.413Z,6.10
2023-01-17T13:38:58.628Z,6.20
2023-01-17T13:41:46.004Z,6.40
2023-01-17T13:44:23.110Z,6.50
2023-01-17T13:47:00.913Z,6.70
2023-01-17T13:49:44.875Z,7.00
2023-01-17T13:52:33.523Z,6.90
2023-01-17T13:55:03.772Z,6.80
2023-01-17T13:57:42.325Z,6.70
2023-01-17T14:00:59.561Z,6.50
2023-01-17T14:04:03.237Z,6.40
2023-01-17T14:06:37.480Z,6.40
2023-01-17T14:09:16.024Z,6.40
2023-01-17T14:12:00.424Z,6.20
2023-01-17T14:14:57.912Z,6.00
2023-01-17T14:17:56.710Z,5.90
2023-01-17T14:20:52.491Z,5.90
2023-01-17T14:23:52.938Z,5.90
2023-01-17T14:26:44.170Z,5.80
2023-01-17T14:29:47.252Z,5.80
2023-01-17T14:32:18.974Z,5.80
2023-01-17T14:34:50.210Z,5.80
2023-01-17T14:37:27.390Z,5.70
2023-01-17T14:39:55.906Z,5.60
2023-01-17T14:42:28.587Z,5.60
2023-01-17T14:45:02.266Z,5.60
2023-01-17T14:47:33.664Z,5.60
2023-01-17T14:50:21.708Z,5.50
2023-01-17T14:52:50.366Z,5.50
2023-01-17T14:55:20.673Z,5.40
2023-01-17T14:57:57.292Z,5.40
2023-01-17T15:00:29.331Z,5.30
2023-01-17T15:03:00.390Z,5.30
2023-01-17T15:05:30.415Z,5.30
2023-01-17T15:08:00.418Z,5.30
2023-01-17T15:10:32.615Z,5.20
2023-01-17T15:13:10.870Z,5.20
2023-01-17T15:15:42.043Z,5.20
2023-01-17T15:18:22.346Z,5.10
2023-01-17T15:20:56.210Z,5.10
2023-01-17T15:23:30.064Z,5.00
2023-01-17T15:25:59.161Z,5.00
2023-01-17T15:28:29.651Z,5.00
2023-01-17T15:31:11.658Z,5.00
2023-01-17T15:33:42.706Z,4.90
2023-01-17T15:36:17.332Z,4.80
2023-01-17T15:38:53.455Z,4.80
2023-01-17T15:41:25.107Z,4.90
2023-01-17T15:43:58.703Z,4.80
2023-01-17T15:46:33.108Z,4.80
2023-01-17T15:49:18.087Z,4.80
2023-01-17T15:51:50.759Z,4.80
2023-01-17T15:54:47.560Z,4.80
2023-01-17T15:57:25.437Z,4.80
2023-01-17T15:59:58.693Z,4.70
2023-01-17T16:02:36.927Z,4.70
2023-01-17T16:05:33.181Z,4.70
2023-01-17T16:08:27.214Z,4.60
2023-01-17T16:10:59.266Z,4.60
2023-01-17T16:13:27.828Z,4.50
2023-01-17T16:16:20.736Z,4.50
2023-01-17T16:18:50.623Z,4.50
2023-01-17T16:21:24.946Z,4.50
2023-01-17T16:23:54.093Z,4.50
2023-01-17T16:26:23.176Z,4.50
2023-01-17T16:28:52.015Z,4.50
2023-01-17T16:31:22.185Z,4.50
2023-01-17T16:33:52.001Z,4.50
2023-01-17T16:36:21.495Z,4.50
2023-01-17T16:38:52.658Z,4.40
2023-01-17T16:41:22.068Z,4.40
2023-01-17T16:44:02.256Z,4.40
2023-01-17T16:46:32.431Z,4.40
2023-01-17T16:49:01.695Z,4.40
2023-01-17T16:51:30.306Z,4.40
2023-01-17T16:53:59.628Z,4.40
2023-01-17T16:56:28.131Z,4.50
2023-01-17T16:58:56.770Z,4.50
2023-01-17T17:01:25.614Z,4.50
2023-01-17T17:03:55.705Z,4.40
2023-01-17T17:06:24.473Z,4.30
2023-01-17T17:08:53.016Z,4.30
2023-01-17T17:11:24.624Z,4.20
2023-01-17T17:13:53.770Z,4.20
2023-01-17T17:16:24.034Z,4.20
2023-01-17T17:18:58.205Z,4.10
2023-01-17T17:21:27.439Z,4.00
2023-01-17T17:23:58.276Z,4.10
2023-01-17T17:26:29.067Z,4.20
2023-01-17T17:28:58.073Z,4.20
2023-01-17T17:31:26.928Z,4.20
2023-01-17T17:33:59.914Z,4.20
2023-01-17T17:36:28.815Z,4.30
2023-01-17T17:38:58.146Z,4.30
2023-01-17T17:41:28.795Z,4.20
2023-01-17T17:43:58.095Z,4.30
2023-01-17T17:46:29.147Z,4.20
2023-01-17T17:48:59.906Z,4.20
2023-01-17T17:51:30.312Z,4.10
2023-01-17T17:54:01.787Z,4.10
2023-01-17T17:56:31.706Z,4.00
2023-01-17T17:59:00.992Z,4.00
2023-01-17T18:01:29.839Z,4.00
2023-01-17T18:04:03.715Z,4.00
2023-01-17T18:06:32.516Z,3.90
2023-01-17T18:09:01.240Z,3.90
2023-01-17T18:11:30.485Z,3.90
2023-01-17T18:14:03.559Z,3.80
2023-01-17T18:16:35.573Z,3.80
2023-01-17T18:19:06.666Z,3.80
2023-01-17T18:21:37.228Z,3.80
2023-01-17T18:24:09.274Z,3.70
2023-01-17T18:26:40.063Z,3.70
2023-01-17T18:29:10.553Z,3.70
2023-01-17T18:31:39.981Z,3.70
2023-01-17T18:34:11.445Z,3.60
2023-01-17T18:36:40.414Z,3.60
2023-01-17T18:39:13.226Z,3.60
2023-01-17T18:41:42.500Z,3.50
2023-01-17T18:44:11.850Z,3.50
2023-01-17T18:46:42.381Z,3.60
2023-01-17T18:49:15.613Z,3.70
2023-01-17T18:51:47.705Z,3.50
2023-01-17T18:54:16.294Z,3.40
2023-01-17T18:56:44.932Z,3.40
2023-01-17T18:59:14.623Z,3.30
2023-01-17T19:01:43.845Z,3.20
2023-01-17T19:04:15.868Z,3.10
2023-01-17T19:06:46.122Z,3.00
2023-01-17T19:09:16.198Z,2.90
2023-01-17T19:11:45.574Z,2.80
2023-01-17T19:14:14.588Z,2.90
2023-01-17T19:16:44.027Z,2.90
2023-01-17T19:19:16.093Z,3.00
2023-01-17T19:21:44.861Z,3.00
2023-01-17T19:24:14.495Z,3.00
2023-01-17T19:26:43.482Z,3.10
2023-01-17T19:29:12.542Z,2.90
2023-01-17T19:31:43.664Z,2.80
2023-01-17T19:34:16.142Z,2.80
2023-01-17T19:36:44.826Z,2.70
2023-01-17T19:39:13.367Z,2.80
2023-01-17T19:41:45.550Z,2.80
2023-01-17T19:44:15.183Z,3.00
2023-01-17T19:46:44.093Z,2.90
2023-01-17T19:49:16.413Z,2.80
2023-01-17T19:51:44.954Z,2.80
2023-01-17T19:54:15.295Z,2.70
2023-01-17T19:56:43.912Z,2.60
2023-01-17T19:59:13.922Z,2.50
2023-01-17T20:01:42.869Z,2.50
2023-01-17T20:04:12.935Z,2.50
2023-01-17T20:06:43.028Z,2.60
2023-01-17T20:09:11.944Z,2.60
2023-01-17T20:11:42.277Z,2.60
